Las Vegas, Nevada
Traffic Map
Current Weather Conditions
Las Vegas, Nevada
Scattered Clouds
Scattered Clouds
23°
Feels Like: 23°
Wind Chill: 23° Ceiling: Unl
Heat Index: 23° Visibility: 10mi
Dew Point: Wind: 3mph
Humidity: 29% Direction: 200° (SSW)
Pressure: 29.95in Gusts: 0mph
Raw Report DataKLAS 191656Z 20003KT 10SM FEW100 FEW150 SCT250 23/04 A2995 RMK AO2 SLP124 T02280039
Traffic Incident Summary
Active as of:
Severity:
Category:
InformationThere was an issue retrieving the traffic information for this location. Please try a different location or try again shortly.
Advertisements
At Last! Intellicast now available for iPhone and Android